Njurba, Russia
Current Conditions -  °F | °C
As of 8:00 AM on Thursday 23 Oct 2014 (Local Time) from UEEE Reporting Station
Broken Clouds Broken Clouds  
Wind Chill: -9°   Ceiling: 20000
Heat Index: -9°   Visibility: 6mi
Dew Point: -15°   Wind: 2mph
Humidity: 77%   Direction: 330°NNW
Pressure: 29.5"   Gusts: NA
Location:  63.28°N, 118.33°E
Report Text: UEEE 222300Z 33001MPS 9999 SCT006 BKN200 M23/M26 Q0999 NOSIGRMK QBB200 QFE741 23490145
Loading
Personal Weather Stations






























Interactive Weather Map
Tropical Storm Tracking
New forecast layout! Learn more

10-Day Weather Forecast

Advertisements
Track Severe Weather on mobile